EZY96TY EGCC-LEAL
Flight info
| Callsign | EZY96TY |
|---|---|
| Flight time | N/A |
| Altitude | 37000 |
| Route | LISTO P18 TELBA L151 KIDLI UN859 SOPIL DCT BALAN DCT LMG DCT PIMQO DCT AGN DCT ANETO DCT POSSY DCT XIMPE DCT RIMES N860 VLC |
| Aircraft | A320/M-SDE2E3FGHIJ1RWXYZ/LB1 |
Departure
| Time | 2026-05-04 17:52 |
|---|---|
| Airport | Manchester Airport (EGCC) |
Arrival
| Time | N/A |
|---|---|
| Airport | Alicante-Elche Miguel Hernández Airport (LEAL) |
| Time | Latitude | Longitude | Altitude | Speed | Heading |
|---|---|---|---|---|---|
| 2026-05-04 17:20 | 53.35931 | -2.27517 | 245 ft | 0 kts | 95° |
| 2026-05-04 17:42 | 53.35934 | -2.27556 | 246 ft | 4 kts | 101° |
| 2026-05-04 17:42 | 53.35941 | -2.27599 | 246 ft | 4 kts | 117° |
| 2026-05-04 17:42 | 53.35956 | -2.27630 | 247 ft | 4 kts | 165° |
| 2026-05-04 17:43 | 53.35964 | -2.27632 | 247 ft | 0 kts | 186° |
| 2026-05-04 17:46 | 53.35914 | -2.27641 | 247 ft | 13 kts | 185° |
| 2026-05-04 17:46 | 53.35859 | -2.27649 | 247 ft | 6 kts | 185° |
| 2026-05-04 17:46 | 53.35823 | -2.27655 | 247 ft | 4 kts | 186° |
| 2026-05-04 17:46 | 53.35783 | -2.27661 | 247 ft | 5 kts | 184° |
| 2026-05-04 17:47 | 53.35739 | -2.27645 | 247 ft | 10 kts | 161° |
| 2026-05-04 17:47 | 53.35675 | -2.27600 | 247 ft | 10 kts | 144° |
| 2026-05-04 17:47 | 53.35625 | -2.27526 | 246 ft | 10 kts | 142° |
| 2026-05-04 17:47 | 53.35567 | -2.27449 | 244 ft | 13 kts | 141° |
| 2026-05-04 17:48 | 53.35467 | -2.27310 | 245 ft | 21 kts | 141° |
| 2026-05-04 17:48 | 53.35362 | -2.27196 | 247 ft | 9 kts | 166° |
| 2026-05-04 17:48 | 53.35330 | -2.27192 | 248 ft | 5 kts | 184° |
| 2026-05-04 17:48 | 53.35288 | -2.27202 | 252 ft | 7 kts | 189° |
| 2026-05-04 17:49 | 53.35267 | -2.27208 | 254 ft | 0 kts | 190° |
| 2026-05-04 17:49 | 53.35194 | -2.27233 | 263 ft | 14 kts | 192° |
| 2026-05-04 17:49 | 53.35144 | -2.27252 | 268 ft | 0 kts | 193° |
| 2026-05-04 17:51 | 53.35122 | -2.27259 | 270 ft | 6 kts | 191° |
| 2026-05-04 17:51 | 53.35039 | -2.27291 | 270 ft | 15 kts | 199° |
| 2026-05-04 17:51 | 53.34978 | -2.27387 | 269 ft | 16 kts | 230° |
| 2026-05-04 17:52 | 53.34778 | -2.27801 | 262 ft | 81 kts | 231° |
| 2026-05-04 17:52 | 53.34292 | -2.28802 | 251 ft | 138 kts | 231° |
| 2026-05-04 17:52 | 53.33591 | -2.30208 | 483 ft | 163 kts | 228° |
| 2026-05-04 17:52 | 53.32836 | -2.31616 | 1175 ft | 162 kts | 230° |
| 2026-05-04 17:53 | 53.32131 | -2.33110 | 1707 ft | 172 kts | 235° |
| 2026-05-04 17:53 | 53.31793 | -2.35114 | 1946 ft | 195 kts | 277° |
| 2026-05-04 17:53 | 53.32377 | -2.37292 | 2189 ft | 220 kts | 302° |
| 2026-05-04 17:53 | 53.33035 | -2.39742 | 2510 ft | 243 kts | 281° |
| 2026-05-04 17:54 | 53.32933 | -2.42618 | 3063 ft | 256 kts | 249° |
| 2026-05-04 17:54 | 53.31885 | -2.45017 | 3829 ft | 262 kts | 216° |
| 2026-05-04 17:54 | 53.30183 | -2.46095 | 4636 ft | 267 kts | 183° |
| 2026-05-04 17:54 | 53.28333 | -2.45637 | 5438 ft | 271 kts | 166° |
| 2026-05-04 17:55 | 53.26573 | -2.44598 | 6230 ft | 274 kts | 153° |
| 2026-05-04 17:55 | 53.24883 | -2.43065 | 6841 ft | 279 kts | 152° |
| 2026-05-04 17:55 | 53.23173 | -2.41527 | 7013 ft | 280 kts | 153° |
| 2026-05-04 17:55 | 53.21453 | -2.40001 | 7049 ft | 280 kts | 153° |
| 2026-05-04 17:56 | 53.19725 | -2.38481 | 7053 ft | 280 kts | 153° |
| 2026-05-04 17:56 | 53.17995 | -2.36968 | 7058 ft | 280 kts | 153° |
| 2026-05-04 17:56 | 53.16288 | -2.35474 | 7052 ft | 280 kts | 153° |
| 2026-05-04 17:56 | 53.14549 | -2.33958 | 7050 ft | 278 kts | 153° |
| 2026-05-04 17:57 | 53.12852 | -2.32474 | 7035 ft | 279 kts | 153° |
| 2026-05-04 17:57 | 53.11113 | -2.30944 | 7632 ft | 282 kts | 152° |
| 2026-05-04 17:57 | 53.09374 | -2.29415 | 8426 ft | 284 kts | 153° |
| 2026-05-04 17:57 | 53.07609 | -2.27874 | 9153 ft | 288 kts | 153° |
| 2026-05-04 17:58 | 53.05823 | -2.26325 | 9881 ft | 291 kts | 153° |
| 2026-05-04 17:58 | 53.03991 | -2.24737 | 10333 ft | 307 kts | 153° |
| 2026-05-04 17:58 | 53.02027 | -2.23035 | 10530 ft | 329 kts | 153° |
| 2026-05-04 17:58 | 52.99959 | -2.21242 | 11034 ft | 339 kts | 153° |
| 2026-05-04 17:59 | 52.97854 | -2.19415 | 11688 ft | 343 kts | 153° |
| 2026-05-04 17:59 | 52.95723 | -2.17569 | 12370 ft | 346 kts | 153° |
| 2026-05-04 17:59 | 52.91414 | -2.13843 | 13669 ft | 352 kts | 153° |
| 2026-05-04 18:00 | 52.89235 | -2.11962 | 14292 ft | 355 kts | 153° |
| 2026-05-04 18:00 | 52.87035 | -2.10067 | 14902 ft | 358 kts | 153° |
| 2026-05-04 18:00 | 52.84819 | -2.08163 | 15508 ft | 360 kts | 153° |
| 2026-05-04 18:00 | 52.82587 | -2.06247 | 16097 ft | 363 kts | 154° |
| 2026-05-04 18:01 | 52.80338 | -2.04314 | 16677 ft | 365 kts | 153° |
| 2026-05-04 18:01 | 52.78069 | -2.02363 | 17220 ft | 368 kts | 153° |
| 2026-05-04 18:01 | 52.75821 | -2.00430 | 17767 ft | 370 kts | 153° |
| 2026-05-04 18:02 | 52.71220 | -1.96487 | 18809 ft | 375 kts | 154° |
| 2026-05-04 18:02 | 52.68889 | -1.94502 | 19307 ft | 378 kts | 154° |
| 2026-05-04 18:02 | 52.66543 | -1.92508 | 19812 ft | 380 kts | 154° |
| 2026-05-04 18:02 | 52.64182 | -1.90496 | 20306 ft | 383 kts | 154° |
| 2026-05-04 18:03 | 52.61811 | -1.88471 | 20762 ft | 385 kts | 154° |
| 2026-05-04 18:03 | 52.59429 | -1.86439 | 21205 ft | 387 kts | 154° |
| 2026-05-04 18:03 | 52.57030 | -1.84398 | 21646 ft | 389 kts | 154° |
| 2026-05-04 18:03 | 52.54611 | -1.82349 | 22086 ft | 392 kts | 155° |
| 2026-05-04 18:04 | 52.52185 | -1.80299 | 22512 ft | 394 kts | 155° |
| 2026-05-04 18:04 | 52.49743 | -1.78236 | 22922 ft | 396 kts | 155° |
| 2026-05-04 18:04 | 52.44819 | -1.74086 | 23724 ft | 400 kts | 155° |
| 2026-05-04 18:05 | 52.42334 | -1.71991 | 24101 ft | 402 kts | 155° |
| 2026-05-04 18:05 | 52.39841 | -1.69892 | 24474 ft | 404 kts | 155° |
| 2026-05-04 18:05 | 52.37303 | -1.68026 | 24837 ft | 403 kts | 163° |
| 2026-05-04 18:05 | 52.34562 | -1.66868 | 25203 ft | 402 kts | 173° |
| 2026-05-04 18:06 | 52.28975 | -1.66635 | 25880 ft | 403 kts | 183° |
| 2026-05-04 18:06 | 52.26194 | -1.66744 | 26217 ft | 405 kts | 183° |
| 2026-05-04 18:06 | 52.23368 | -1.66848 | 26546 ft | 407 kts | 183° |
| 2026-05-04 18:07 | 52.20531 | -1.66951 | 26876 ft | 409 kts | 183° |
| 2026-05-04 18:07 | 52.17684 | -1.67053 | 27184 ft | 410 kts | 183° |
| 2026-05-04 18:07 | 52.14823 | -1.67153 | 27480 ft | 412 kts | 182° |
| 2026-05-04 18:07 | 52.11950 | -1.67112 | 27782 ft | 415 kts | 175° |
| 2026-05-04 18:08 | 52.09139 | -1.65940 | 28076 ft | 421 kts | 158° |
| 2026-05-04 18:08 | 52.06518 | -1.63773 | 28353 ft | 424 kts | 154° |
| 2026-05-04 18:08 | 52.04789 | -1.62269 | 28546 ft | 425 kts | 154° |
| 2026-05-04 18:08 | 52.01301 | -1.59206 | 28913 ft | 428 kts | 153° |
| 2026-05-04 18:09 | 51.96028 | -1.54577 | 29420 ft | 432 kts | 154° |
| 2026-05-04 18:09 | 51.90713 | -1.49954 | 29928 ft | 434 kts | 153° |
| 2026-05-04 18:10 | 51.88945 | -1.48422 | 30086 ft | 436 kts | 154° |
| 2026-05-04 18:10 | 51.85356 | -1.45320 | 30412 ft | 437 kts | 154° |
| 2026-05-04 18:10 | 51.82697 | -1.43022 | 30641 ft | 439 kts | 153° |
| 2026-05-04 18:10 | 51.80008 | -1.40695 | 30940 ft | 438 kts | 153° |
| 2026-05-04 18:11 | 51.77325 | -1.38371 | 31258 ft | 437 kts | 153° |
| 2026-05-04 18:11 | 51.74647 | -1.36059 | 31556 ft | 436 kts | 153° |
| 2026-05-04 18:11 | 51.71968 | -1.33757 | 31861 ft | 435 kts | 153° |
| 2026-05-04 18:11 | 51.69298 | -1.31467 | 32161 ft | 434 kts | 153° |
| 2026-05-04 18:12 | 51.66623 | -1.29178 | 32457 ft | 434 kts | 153° |
| 2026-05-04 18:12 | 51.63955 | -1.26898 | 32734 ft | 433 kts | 153° |
| 2026-05-04 18:12 | 51.62157 | -1.25363 | 32923 ft | 433 kts | 153° |
| 2026-05-04 18:12 | 51.58630 | -1.22355 | 33284 ft | 432 kts | 153° |
| 2026-05-04 18:13 | 51.55974 | -1.20088 | 33554 ft | 432 kts | 153° |
| 2026-05-04 18:13 | 51.53325 | -1.17826 | 33810 ft | 431 kts | 153° |
| 2026-05-04 18:13 | 51.48922 | -1.14080 | 34257 ft | 430 kts | 153° |
| 2026-05-04 18:14 | 51.46276 | -1.11830 | 34492 ft | 430 kts | 153° |
| 2026-05-04 18:14 | 51.43628 | -1.09583 | 34700 ft | 430 kts | 153° |
| 2026-05-04 18:14 | 51.40968 | -1.07326 | 34905 ft | 430 kts | 153° |
| 2026-05-04 18:15 | 51.35694 | -1.02871 | 35300 ft | 431 kts | 153° |
| 2026-05-04 18:15 | 51.30376 | -0.98403 | 35676 ft | 431 kts | 153° |
| 2026-05-04 18:15 | 51.27717 | -0.96169 | 35842 ft | 431 kts | 153° |
| 2026-05-04 18:16 | 51.25056 | -0.93933 | 36025 ft | 431 kts | 153° |
| 2026-05-04 18:16 | 51.22427 | -0.91728 | 36200 ft | 431 kts | 153° |
| 2026-05-04 18:16 | 51.19765 | -0.89493 | 36345 ft | 432 kts | 153° |
| 2026-05-04 18:17 | 51.14423 | -0.85014 | 36650 ft | 433 kts | 153° |
| 2026-05-04 18:17 | 51.11757 | -0.82783 | 36862 ft | 431 kts | 153° |
| 2026-05-04 18:17 | 51.06483 | -0.78394 | 37027 ft | 427 kts | 153° |
| 2026-05-04 18:18 | 51.03845 | -0.76207 | 37025 ft | 426 kts | 153° |
| 2026-05-04 18:18 | 50.98581 | -0.71847 | 37016 ft | 426 kts | 153° |
| 2026-05-04 18:19 | 50.90696 | -0.65318 | 37007 ft | 425 kts | 153° |
| 2026-05-04 18:19 | 50.85470 | -0.61018 | 37009 ft | 425 kts | 153° |
| 2026-05-04 18:20 | 50.80221 | -0.56707 | 37008 ft | 425 kts | 153° |
| 2026-05-04 18:20 | 50.74966 | -0.52401 | 37008 ft | 425 kts | 153° |
| 2026-05-04 18:21 | 50.69714 | -0.48104 | 37009 ft | 425 kts | 153° |
| 2026-05-04 18:21 | 50.64462 | -0.43815 | 37010 ft | 425 kts | 153° |
| 2026-05-04 18:22 | 50.59238 | -0.39558 | 37013 ft | 425 kts | 153° |
| 2026-05-04 18:22 | 50.53975 | -0.35275 | 37016 ft | 425 kts | 153° |
| 2026-05-04 18:23 | 50.48707 | -0.31008 | 37017 ft | 425 kts | 154° |
| 2026-05-04 18:23 | 50.43446 | -0.26763 | 37013 ft | 425 kts | 154° |
| 2026-05-04 18:24 | 50.38171 | -0.22517 | 37012 ft | 425 kts | 154° |
| 2026-05-04 18:24 | 50.32899 | -0.18276 | 37012 ft | 426 kts | 154° |
| 2026-05-04 18:25 | 50.27623 | -0.14051 | 37012 ft | 425 kts | 154° |
| 2026-05-04 18:25 | 50.22367 | -0.09855 | 37010 ft | 426 kts | 154° |
| 2026-05-04 18:26 | 50.17078 | -0.05642 | 37010 ft | 426 kts | 154° |
| 2026-05-04 18:26 | 50.11794 | -0.01441 | 37012 ft | 426 kts | 154° |
| 2026-05-04 18:27 | 50.06202 | 0.01514 | 37020 ft | 424 kts | 167° |
| 2026-05-04 18:27 | 50.00501 | 0.03755 | 37031 ft | 421 kts | 167° |
| 2026-05-04 18:28 | 49.94861 | 0.05961 | 37028 ft | 419 kts | 167° |
| 2026-05-04 18:28 | 49.89203 | 0.08178 | 37020 ft | 418 kts | 167° |
| 2026-05-04 18:29 | 49.83573 | 0.10390 | 37019 ft | 417 kts | 167° |
| 2026-05-04 18:29 | 49.77934 | 0.12594 | 37016 ft | 417 kts | 167° |
| 2026-05-04 18:30 | 49.69532 | 0.15876 | 37015 ft | 416 kts | 167° |
| 2026-05-04 18:31 | 49.63905 | 0.18093 | 37015 ft | 417 kts | 167° |
| 2026-05-04 18:31 | 49.58318 | 0.20353 | 37014 ft | 416 kts | 166° |
| 2026-05-04 18:32 | 49.52719 | 0.22626 | 37015 ft | 416 kts | 167° |
| 2026-05-04 18:32 | 49.47113 | 0.24877 | 37012 ft | 415 kts | 167° |
| 2026-05-04 18:33 | 49.41521 | 0.27106 | 37010 ft | 415 kts | 167° |
| 2026-05-04 18:33 | 49.35959 | 0.29319 | 37009 ft | 415 kts | 167° |
| 2026-05-04 18:34 | 49.30358 | 0.31559 | 37007 ft | 415 kts | 167° |
| 2026-05-04 18:34 | 49.24782 | 0.33879 | 37009 ft | 414 kts | 166° |
| 2026-05-04 18:35 | 49.19257 | 0.36240 | 37010 ft | 414 kts | 166° |
| 2026-05-04 18:35 | 49.13695 | 0.38601 | 37010 ft | 414 kts | 166° |
| 2026-05-04 18:36 | 49.08135 | 0.40934 | 36999 ft | 414 kts | 166° |
| 2026-05-04 18:36 | 49.02556 | 0.43263 | 36991 ft | 414 kts | 166° |
| 2026-05-04 18:37 | 48.97042 | 0.45562 | 36990 ft | 414 kts | 166° |
| 2026-05-04 18:37 | 48.91477 | 0.47878 | 36987 ft | 413 kts | 167° |
| 2026-05-04 18:38 | 48.85953 | 0.50178 | 36986 ft | 413 kts | 167° |
| 2026-05-04 18:38 | 48.80397 | 0.52489 | 36984 ft | 413 kts | 167° |
| 2026-05-04 18:39 | 48.74841 | 0.54743 | 36982 ft | 413 kts | 167° |
| 2026-05-04 18:39 | 48.69274 | 0.56895 | 36983 ft | 412 kts | 168° |
| 2026-05-04 18:40 | 48.63738 | 0.59029 | 36982 ft | 413 kts | 167° |
| 2026-05-04 18:40 | 48.58168 | 0.61193 | 36977 ft | 412 kts | 168° |
| 2026-05-04 18:41 | 48.52611 | 0.63359 | 36973 ft | 412 kts | 167° |
| 2026-05-04 18:41 | 48.47093 | 0.65571 | 36974 ft | 413 kts | 167° |
| 2026-05-04 18:42 | 48.41539 | 0.67848 | 36973 ft | 413 kts | 167° |
| 2026-05-04 18:42 | 48.35989 | 0.70119 | 36974 ft | 413 kts | 167° |
| 2026-05-04 18:43 | 48.30432 | 0.72381 | 36979 ft | 413 kts | 167° |
| 2026-05-04 18:43 | 48.24916 | 0.74616 | 36973 ft | 412 kts | 167° |
| 2026-05-04 18:44 | 48.19368 | 0.76824 | 36970 ft | 411 kts | 168° |
| 2026-05-04 18:44 | 48.13810 | 0.78983 | 36962 ft | 412 kts | 168° |
| 2026-05-04 18:45 | 48.08287 | 0.81140 | 36956 ft | 412 kts | 167° |
| 2026-05-04 18:45 | 48.02706 | 0.83328 | 36957 ft | 413 kts | 167° |
| 2026-05-04 18:46 | 47.97149 | 0.85505 | 36960 ft | 412 kts | 168° |
| 2026-05-04 18:46 | 47.91627 | 0.87658 | 36957 ft | 412 kts | 168° |
| 2026-05-04 18:47 | 47.86054 | 0.89810 | 36949 ft | 413 kts | 168° |
| 2026-05-04 18:47 | 47.80479 | 0.91966 | 36949 ft | 414 kts | 168° |
| 2026-05-04 18:48 | 47.74932 | 0.94120 | 36952 ft | 414 kts | 168° |
| 2026-05-04 18:48 | 47.69349 | 0.96289 | 36954 ft | 414 kts | 168° |
| 2026-05-04 18:49 | 47.63772 | 0.98438 | 36956 ft | 414 kts | 168° |
| 2026-05-04 18:49 | 47.58183 | 1.00588 | 36957 ft | 414 kts | 168° |
| 2026-05-04 18:50 | 47.52598 | 1.02728 | 36959 ft | 414 kts | 168° |
| 2026-05-04 18:50 | 47.47054 | 1.04851 | 36959 ft | 414 kts | 168° |
| 2026-05-04 18:51 | 47.41422 | 1.06379 | 36960 ft | 409 kts | 181° |
| 2026-05-04 18:51 | 47.35740 | 1.06353 | 36961 ft | 408 kts | 181° |
| 2026-05-04 18:52 | 47.30020 | 1.06696 | 36944 ft | 415 kts | 179° |
| 2026-05-04 18:52 | 47.24188 | 1.07155 | 36935 ft | 423 kts | 179° |
| 2026-05-04 18:53 | 47.18309 | 1.07546 | 36934 ft | 426 kts | 180° |
| 2026-05-04 18:53 | 47.12378 | 1.07895 | 36935 ft | 426 kts | 180° |
| 2026-05-04 18:54 | 47.06430 | 1.08253 | 36935 ft | 429 kts | 180° |
| 2026-05-04 18:54 | 47.00438 | 1.08609 | 36936 ft | 431 kts | 180° |
| 2026-05-04 18:55 | 46.95449 | 1.08903 | 36943 ft | 431 kts | 180° |
| 2026-05-04 18:55 | 46.86436 | 1.09447 | 36949 ft | 431 kts | 180° |
| 2026-05-04 18:56 | 46.80468 | 1.09803 | 36952 ft | 431 kts | 180° |
| 2026-05-04 18:56 | 46.74468 | 1.10165 | 36951 ft | 431 kts | 180° |
| 2026-05-04 18:57 | 46.68471 | 1.10520 | 36949 ft | 431 kts | 180° |
| 2026-05-04 18:57 | 46.62474 | 1.10868 | 36951 ft | 430 kts | 180° |
| 2026-05-04 18:58 | 46.56492 | 1.11227 | 36953 ft | 430 kts | 180° |
| 2026-05-04 18:58 | 46.50508 | 1.11591 | 36954 ft | 430 kts | 180° |
| 2026-05-04 18:59 | 46.44532 | 1.11944 | 36954 ft | 429 kts | 180° |
| 2026-05-04 18:59 | 46.38561 | 1.12265 | 36953 ft | 428 kts | 183° |
| 2026-05-04 19:00 | 46.32703 | 1.11447 | 36951 ft | 425 kts | 188° |
| 2026-05-04 19:00 | 46.26809 | 1.10488 | 36951 ft | 426 kts | 188° |
| 2026-05-04 19:01 | 46.20912 | 1.09528 | 36949 ft | 425 kts | 188° |
| 2026-05-04 19:01 | 46.15023 | 1.08572 | 36946 ft | 425 kts | 188° |
| 2026-05-04 19:02 | 46.09181 | 1.07628 | 36944 ft | 425 kts | 188° |
| 2026-05-04 19:02 | 46.03300 | 1.06678 | 36942 ft | 424 kts | 188° |
| 2026-05-04 19:03 | 45.97434 | 1.05733 | 36936 ft | 424 kts | 188° |
| 2026-05-04 19:03 | 45.91588 | 1.04789 | 36923 ft | 422 kts | 188° |
| 2026-05-04 19:04 | 45.85756 | 1.03855 | 36928 ft | 422 kts | 188° |
| 2026-05-04 19:04 | 45.79916 | 1.02929 | 36930 ft | 422 kts | 188° |
| 2026-05-04 19:05 | 45.74111 | 1.02009 | 36912 ft | 422 kts | 188° |
| 2026-05-04 19:05 | 45.68270 | 1.01069 | 36928 ft | 422 kts | 188° |
| 2026-05-04 19:06 | 45.62429 | 1.00127 | 36929 ft | 422 kts | 188° |
| 2026-05-04 19:06 | 45.58526 | 0.99506 | 36924 ft | 422 kts | 188° |
| 2026-05-04 19:07 | 45.50756 | 0.98276 | 36916 ft | 422 kts | 188° |
| 2026-05-04 19:07 | 45.44946 | 0.97357 | 36928 ft | 421 kts | 188° |
| 2026-05-04 19:08 | 45.39112 | 0.96442 | 36928 ft | 422 kts | 188° |
| 2026-05-04 19:08 | 45.33279 | 0.95528 | 36917 ft | 421 kts | 188° |
| 2026-05-04 19:09 | 45.27446 | 0.94615 | 36929 ft | 422 kts | 188° |
| 2026-05-04 19:09 | 45.21638 | 0.93700 | 36928 ft | 422 kts | 188° |
| 2026-05-04 19:10 | 45.15794 | 0.92783 | 36946 ft | 425 kts | 188° |
| 2026-05-04 19:10 | 45.09890 | 0.91856 | 36943 ft | 428 kts | 188° |
| 2026-05-04 19:11 | 45.03961 | 0.90940 | 36946 ft | 428 kts | 188° |
| 2026-05-04 19:11 | 44.98030 | 0.90022 | 36954 ft | 429 kts | 188° |
| 2026-05-04 19:12 | 44.89114 | 0.88632 | 36956 ft | 429 kts | 188° |
| 2026-05-04 19:13 | 44.83189 | 0.87721 | 36962 ft | 429 kts | 188° |
| 2026-05-04 19:13 | 44.77240 | 0.86805 | 36960 ft | 430 kts | 188° |
| 2026-05-04 19:14 | 44.71309 | 0.85886 | 36960 ft | 430 kts | 188° |
| 2026-05-04 19:14 | 44.65348 | 0.84964 | 36958 ft | 431 kts | 188° |
| 2026-05-04 19:15 | 44.59378 | 0.84054 | 36959 ft | 431 kts | 188° |
| 2026-05-04 19:15 | 44.53406 | 0.83148 | 36961 ft | 431 kts | 188° |
| 2026-05-04 19:16 | 44.47474 | 0.82235 | 36962 ft | 431 kts | 188° |
| 2026-05-04 19:16 | 44.41554 | 0.81326 | 36962 ft | 431 kts | 188° |
| 2026-05-04 19:17 | 44.35570 | 0.80412 | 36972 ft | 431 kts | 188° |
| 2026-05-04 19:17 | 44.29597 | 0.79514 | 36972 ft | 432 kts | 188° |
| 2026-05-04 19:18 | 44.23650 | 0.78616 | 36971 ft | 432 kts | 188° |
| 2026-05-04 19:18 | 44.17664 | 0.77712 | 36970 ft | 432 kts | 188° |
| 2026-05-04 19:19 | 44.11679 | 0.76810 | 36970 ft | 432 kts | 188° |
| 2026-05-04 19:19 | 44.05730 | 0.75920 | 36970 ft | 433 kts | 188° |
| 2026-05-04 19:20 | 43.99733 | 0.75012 | 36973 ft | 432 kts | 188° |
| 2026-05-04 19:20 | 43.93752 | 0.74106 | 36975 ft | 432 kts | 189° |
| 2026-05-04 19:21 | 43.87833 | 0.73230 | 36973 ft | 415 kts | 189° |
| 2026-05-04 19:21 | 43.82248 | 0.72399 | 36979 ft | 401 kts | 189° |
| 2026-05-04 19:22 | 43.76690 | 0.71564 | 36979 ft | 399 kts | 189° |
| 2026-05-04 19:22 | 43.71191 | 0.70743 | 36979 ft | 399 kts | 189° |
| 2026-05-04 19:23 | 43.65670 | 0.69923 | 36978 ft | 399 kts | 189° |
| 2026-05-04 19:23 | 43.60134 | 0.69107 | 36979 ft | 399 kts | 189° |
| 2026-05-04 19:24 | 43.54643 | 0.68293 | 36980 ft | 399 kts | 189° |
| 2026-05-04 19:24 | 43.49119 | 0.67467 | 36979 ft | 399 kts | 189° |
| 2026-05-04 19:25 | 43.43587 | 0.66646 | 36982 ft | 399 kts | 189° |
| 2026-05-04 19:25 | 43.38065 | 0.65836 | 36984 ft | 399 kts | 189° |
| 2026-05-04 19:26 | 43.32564 | 0.65036 | 36989 ft | 399 kts | 189° |
| 2026-05-04 19:26 | 43.27013 | 0.64220 | 36995 ft | 399 kts | 189° |
| 2026-05-04 19:27 | 43.21484 | 0.63411 | 37001 ft | 399 kts | 189° |
| 2026-05-04 19:27 | 43.15981 | 0.62601 | 37005 ft | 399 kts | 189° |
| 2026-05-04 19:28 | 43.10452 | 0.61804 | 37006 ft | 399 kts | 189° |
| 2026-05-04 19:28 | 43.04926 | 0.60998 | 37005 ft | 398 kts | 190° |
| 2026-05-04 19:29 | 42.99399 | 0.60192 | 37007 ft | 399 kts | 190° |
| 2026-05-04 19:29 | 42.93905 | 0.59395 | 37007 ft | 399 kts | 190° |
| 2026-05-04 19:30 | 42.88377 | 0.58596 | 37003 ft | 399 kts | 190° |
| 2026-05-04 19:30 | 42.83788 | 0.57932 | 36995 ft | 399 kts | 190° |
| 2026-05-04 19:31 | 42.78260 | 0.57125 | 36996 ft | 399 kts | 190° |
| 2026-05-04 19:31 | 42.72739 | 0.56328 | 37001 ft | 399 kts | 191° |
| 2026-05-04 19:32 | 42.66443 | 0.54438 | 36992 ft | 396 kts | 197° |
| 2026-05-04 19:32 | 42.61990 | 0.52972 | 36992 ft | 395 kts | 197° |
| 2026-05-04 19:33 | 42.56671 | 0.51219 | 36992 ft | 395 kts | 197° |
| 2026-05-04 19:33 | 42.51311 | 0.49462 | 36989 ft | 396 kts | 197° |
| 2026-05-04 19:34 | 42.45946 | 0.47714 | 36985 ft | 396 kts | 198° |
| 2026-05-04 19:34 | 42.40577 | 0.45970 | 36988 ft | 397 kts | 197° |
| 2026-05-04 19:35 | 42.34343 | 0.43954 | 36987 ft | 396 kts | 198° |
| 2026-05-04 19:35 | 42.28975 | 0.42218 | 36983 ft | 396 kts | 198° |
| 2026-05-04 19:36 | 42.24518 | 0.40771 | 36983 ft | 396 kts | 198° |
| 2026-05-04 19:36 | 42.19156 | 0.39032 | 36976 ft | 396 kts | 198° |
| 2026-05-04 19:37 | 42.13786 | 0.37296 | 36979 ft | 396 kts | 198° |
| 2026-05-04 19:37 | 42.08415 | 0.35566 | 36979 ft | 396 kts | 198° |
| 2026-05-04 19:38 | 42.03081 | 0.33849 | 36958 ft | 396 kts | 198° |
| 2026-05-04 19:38 | 41.97707 | 0.32119 | 36955 ft | 399 kts | 198° |
| 2026-05-04 19:39 | 41.92294 | 0.30385 | 36958 ft | 400 kts | 198° |
| 2026-05-04 19:39 | 41.86870 | 0.28656 | 36961 ft | 401 kts | 198° |
| 2026-05-04 19:40 | 41.81430 | 0.26931 | 36967 ft | 401 kts | 198° |
| 2026-05-04 19:40 | 41.75985 | 0.25199 | 36972 ft | 402 kts | 198° |
| 2026-05-04 19:41 | 41.70547 | 0.23467 | 36976 ft | 402 kts | 198° |
| 2026-05-04 19:41 | 41.65108 | 0.21734 | 36977 ft | 402 kts | 198° |
| 2026-05-04 19:42 | 41.59693 | 0.20022 | 36977 ft | 401 kts | 198° |
| 2026-05-04 19:42 | 41.54251 | 0.18287 | 36980 ft | 401 kts | 198° |
| 2026-05-04 19:43 | 41.48822 | 0.16568 | 36981 ft | 401 kts | 198° |
| 2026-05-04 19:43 | 41.43414 | 0.14871 | 36981 ft | 402 kts | 198° |
| 2026-05-04 19:44 | 41.37967 | 0.13151 | 36986 ft | 401 kts | 199° |
| 2026-05-04 19:44 | 41.32526 | 0.11441 | 36986 ft | 401 kts | 198° |
| 2026-05-04 19:45 | 41.27087 | 0.09728 | 36986 ft | 401 kts | 198° |
| 2026-05-04 19:45 | 41.21681 | 0.08037 | 36988 ft | 400 kts | 198° |
| 2026-05-04 19:46 | 41.16263 | 0.06357 | 36987 ft | 400 kts | 199° |
| 2026-05-04 19:46 | 41.10873 | 0.04671 | 36987 ft | 399 kts | 199° |
| 2026-05-04 19:47 | 41.05467 | 0.02973 | 36987 ft | 399 kts | 199° |
| 2026-05-04 19:47 | 41.00065 | 0.01286 | 36985 ft | 398 kts | 199° |
| 2026-05-04 19:48 | 40.94688 | -0.00380 | 36985 ft | 398 kts | 199° |
| 2026-05-04 19:48 | 40.90198 | -0.01774 | 36952 ft | 400 kts | 199° |
| 2026-05-04 19:49 | 40.84747 | -0.03461 | 36942 ft | 403 kts | 199° |
| 2026-05-04 19:49 | 40.79255 | -0.05156 | 36950 ft | 405 kts | 199° |
| 2026-05-04 19:50 | 40.73744 | -0.06853 | 36956 ft | 407 kts | 199° |